Terminal Aerodrome Forecast
Issued by NWS Upton, NY

Home | Current Version | Previous Version | Text Only | Print | Product List | Glossary On
Versions: 1 2 3 4 5 6 7 8 9 10 11 12 13 14 15 16 17 18 19 20 21 22 23 24 25 26 27 28 29 30 31 32 33 34
730
FTUS41 KOKX 261523 AAB
TAFISP
TAF AMD
KISP 261523Z 2615/2712 29010KT P6SM BKN015
     FM261700 28010G16KT P6SM VCSH SCT015 SCT025 BKN035
     FM262000 29013G19KT P6SM VCSH BKN035
     FM262300 30010KT P6SM BKN035
     FM270200 31006KT P6SM SCT035
     FM271000 33006KT P6SM SCT050=

USA.gov is the U.S. government's official web portal to all federal, state and local government web resources and services.